Time;durP1;ratioP1;P1;durP2;ratioP2;P2;SDS_P1;SDS_P2;PMS_P1;PMS_P2;Temp;Humidity;BMP_temperature;BMP_pressure;BME280_temperature;BME280_humidity;BME280_pressure;Samples;Min_cycle;Max_cycle;Signal;HPM_P1;HPM_P2
2023/07/06 00:02:29;;;;;;;3.10;2.90;;;;;;;;;;5063066;28;20713;-66
2023/07/06 00:04:57;;;;;;;5.50;2.33;;;;;;;;;;5063190;28;20686;-66
2023/07/06 00:07:26;;;;;;;5.07;2.20;;;;;;;;;;5053866;28;20685;-64
2023/07/06 00:09:54;;;;;;;2.73;2.27;;;;;;;;;;5062632;28;21273;-63
2023/07/06 00:12:23;;;;;;;4.13;2.33;;;;;;;;;;5055268;28;20679;-65
2023/07/06 00:14:51;;;;;;;4.83;2.83;;;;;;;;;;5063384;28;20677;-63
2023/07/06 00:17:22;;;;;;;2.77;2.57;;;;;;;;;;5062979;28;20722;-63
2023/07/06 00:19:51;;;;;;;2.40;1.67;;;;;;;;;;5062328;28;20657;-63
2023/07/06 00:22:19;;;;;;;7.43;2.83;;;;;;;;;;5063435;28;20665;-64
2023/07/06 00:24:48;;;;;;;4.30;2.40;;;;;;;;;;5063445;28;20665;-63
2023/07/06 00:27:16;;;;;;;3.00;2.70;;;;;;;;;;5063683;28;20722;-63
2023/07/06 00:29:56;;;;;;;2.40;2.10;;;;;;;;;;5062254;28;21240;-63
2023/07/06 00:32:28;;;;;;;4.57;2.60;;;;;;;;;;5063800;28;21073;-64
2023/07/06 00:34:59;;;;;;;3.10;2.07;;;;;;;;;;5063094;28;20625;-63
2023/07/06 00:37:29;;;;;;;2.80;2.40;;;;;;;;;;5053321;28;20714;-66
2023/07/06 00:39:58;;;;;;;3.33;1.90;;;;;;;;;;5042770;28;20678;-62
2023/07/06 00:42:26;;;;;;;2.80;2.60;;;;;;;;;;5043083;28;20670;-63
2023/07/06 00:44:57;;;;;;;2.50;2.00;;;;;;;;;;5043412;28;20679;-63
2023/07/06 00:47:31;;;;;;;3.90;2.60;;;;;;;;;;5043624;28;20675;-63
2023/07/06 00:50:06;;;;;;;2.50;2.30;;;;;;;;;;5054972;28;20599;-63
2023/07/06 00:52:35;;;;;;;2.70;2.10;;;;;;;;;;5062703;28;20644;-63
2023/07/06 00:55:04;;;;;;;3.87;3.00;;;;;;;;;;5061843;28;20675;-63
2023/07/06 00:57:35;;;;;;;8.77;2.10;;;;;;;;;;5061813;28;20742;-63
2023/07/06 01:00:05;;;;;;;4.13;2.43;;;;;;;;;;5061314;28;20652;-63
2023/07/06 01:02:35;;;;;;;2.30;2.10;;;;;;;;;;5062546;28;20670;-64
2023/07/06 01:05:05;;;;;;;5.90;2.93;;;;;;;;;;5062162;28;20666;-63
2023/07/06 01:07:34;;;;;;;2.60;2.40;;;;;;;;;;5062801;28;21020;-63
2023/07/06 01:10:04;;;;;;;2.53;2.20;;;;;;;;;;5061350;28;20711;-64
2023/07/06 01:12:32;;;;;;;2.87;2.27;;;;;;;;;;5046019;28;20669;-63
2023/07/06 01:15:00;;;;;;;2.50;2.30;;;;;;;;;;5063176;28;20657;-63
2023/07/06 01:17:33;;;;;;;5.07;2.60;;;;;;;;;;5060310;28;20727;-63
2023/07/06 01:20:05;;;;;;;4.80;2.73;;;;;;;;;;5062241;28;20665;-63
2023/07/06 01:22:47;;;;;;;4.20;2.77;;;;;;;;;;5061525;28;20670;-63
2023/07/06 01:25:23;;;;;;;6.20;2.40;;;;;;;;;;5061564;28;21049;-63
2023/07/06 01:27:58;;;;;;;2.80;2.60;;;;;;;;;;5061411;28;21025;-63
2023/07/06 01:30:45;;;;;;;2.20;2.10;;;;;;;;;;5062217;28;20644;-63
2023/07/06 01:33:17;;;;;;;2.53;2.37;;;;;;;;;;5061832;28;20661;-63
2023/07/06 01:35:48;;;;;;;7.63;2.80;;;;;;;;;;5060426;28;20694;-64
2023/07/06 01:38:16;;;;;;;2.90;2.70;;;;;;;;;;5058755;28;20712;-63
2023/07/06 01:40:44;;;;;;;3.30;3.00;;;;;;;;;;5060353;28;21079;-64
2023/07/06 01:43:13;;;;;;;2.77;2.57;;;;;;;;;;5061002;28;21299;-63
2023/07/06 01:45:42;;;;;;;5.20;2.30;;;;;;;;;;5060892;28;20683;-63
2023/07/06 01:48:13;;;;;;;5.77;2.67;;;;;;;;;;5062339;28;20677;-63
2023/07/06 01:50:48;;;;;;;3.43;2.50;;;;;;;;;;5061614;28;20677;-64
2023/07/06 01:53:21;;;;;;;2.77;2.50;;;;;;;;;;5061419;28;20698;-63
2023/07/06 01:55:53;;;;;;;4.00;2.50;;;;;;;;;;5061128;28;20666;-63
2023/07/06 01:58:26;;;;;;;4.50;2.13;;;;;;;;;;5059937;28;20697;-62
2023/07/06 02:00:57;;;;;;;3.10;2.40;;;;;;;;;;5062488;28;21061;-63
2023/07/06 02:03:26;;;;;;;3.03;2.67;;;;;;;;;;5061626;28;20683;-64
2023/07/06 02:05:55;;;;;;;2.20;2.10;;;;;;;;;;5061571;28;20665;-63
2023/07/06 02:08:24;;;;;;;1.93;1.80;;;;;;;;;;5049842;28;20868;-64
2023/07/06 02:10:53;;;;;;;2.30;2.10;;;;;;;;;;5057088;28;20749;-63
2023/07/06 02:13:22;;;;;;;2.83;2.63;;;;;;;;;;5061705;28;20719;-65
2023/07/06 02:15:50;;;;;;;6.50;2.37;;;;;;;;;;5059301;28;20699;-63
2023/07/06 02:18:25;;;;;;;4.30;2.60;;;;;;;;;;5050009;28;20728;-63
2023/07/06 02:20:57;;;;;;;2.70;2.50;;;;;;;;;;5058687;28;20682;-63
2023/07/06 02:23:25;;;;;;;2.60;2.40;;;;;;;;;;5060240;28;20654;-63
2023/07/06 02:25:54;;;;;;;3.20;2.13;;;;;;;;;;5059683;28;20684;-63
2023/07/06 02:28:22;;;;;;;2.73;2.23;;;;;;;;;;5060275;28;20714;-63
2023/07/06 02:30:52;;;;;;;2.20;2.10;;;;;;;;;;5059283;28;20672;-63
2023/07/06 02:33:23;;;;;;;2.87;2.30;;;;;;;;;;5063471;28;20682;-63
2023/07/06 02:35:51;;;;;;;4.30;2.30;;;;;;;;;;5063279;28;21079;-63
2023/07/06 02:38:21;;;;;;;2.93;2.50;;;;;;;;;;5063423;28;20692;-63
2023/07/06 02:40:50;;;;;;;3.43;2.87;;;;;;;;;;5064152;28;20705;-63
2023/07/06 02:43:18;;;;;;;2.73;2.20;;;;;;;;;;5064261;28;20681;-63
2023/07/06 02:45:47;;;;;;;3.90;2.93;;;;;;;;;;5064988;28;20686;-63
2023/07/06 02:48:17;;;;;;;3.53;2.73;;;;;;;;;;5063493;28;20715;-63
2023/07/06 02:50:49;;;;;;;3.00;2.23;;;;;;;;;;5064906;28;20629;-63
2023/07/06 02:53:17;;;;;;;5.53;3.23;;;;;;;;;;5063413;28;20706;-63
2023/07/06 02:55:47;;;;;;;3.03;2.40;;;;;;;;;;5064166;28;20683;-63
2023/07/06 02:58:16;;;;;;;2.80;2.60;;;;;;;;;;5058728;28;20772;-62
2023/07/06 03:00:46;;;;;;;2.57;2.37;;;;;;;;;;5044302;28;20687;-63
2023/07/06 03:03:14;;;;;;;3.03;2.73;;;;;;;;;;5042555;28;20643;-63
2023/07/06 03:05:44;;;;;;;3.53;2.90;;;;;;;;;;5043402;28;20677;-63
2023/07/06 03:08:13;;;;;;;4.80;4.13;;;;;;;;;;5044712;28;20688;-63
2023/07/06 03:10:46;;;;;;;2.93;2.70;;;;;;;;;;5054312;28;20617;-62
2023/07/06 03:13:16;;;;;;;4.83;2.67;;;;;;;;;;5064893;28;20657;-63
2023/07/06 03:15:45;;;;;;;4.95;3.08;;;;;;;;;;5063931;28;20706;-64
2023/07/06 03:18:14;;;;;;;4.13;2.73;;;;;;;;;;5064659;28;20633;-63
2023/07/06 03:20:46;;;;;;;3.80;2.60;;;;;;;;;;5063720;28;20690;-63
2023/07/06 03:23:14;;;;;;;2.20;2.10;;;;;;;;;;5063416;28;21205;-63
2023/07/06 03:25:42;;;;;;;4.93;2.73;;;;;;;;;;5063256;28;20702;-63
2023/07/06 03:28:11;;;;;;;2.90;2.70;;;;;;;;;;5062932;28;20710;-63
2023/07/06 03:30:43;;;;;;;3.03;2.70;;;;;;;;;;5063502;28;20280;-62
2023/07/06 03:33:11;;;;;;;4.20;3.08;;;;;;;;;;5063951;28;20677;-63
2023/07/06 03:35:41;;;;;;;3.00;2.53;;;;;;;;;;5063465;28;20279;-63
2023/07/06 03:38:09;;;;;;;3.77;3.33;;;;;;;;;;5063864;28;21093;-63
2023/07/06 03:40:38;;;;;;;2.97;2.77;;;;;;;;;;5064541;28;20714;-63
2023/07/06 03:43:06;;;;;;;3.95;2.58;;;;;;;;;;5063217;28;21184;-63
2023/07/06 03:45:34;;;;;;;3.50;2.85;;;;;;;;;;5062804;28;20261;-63
2023/07/06 03:48:04;;;;;;;3.90;3.07;;;;;;;;;;5064533;28;20276;-63
2023/07/06 03:50:33;;;;;;;3.90;2.90;;;;;;;;;;5063620;28;20683;-63
2023/07/06 03:53:03;;;;;;;4.95;3.33;;;;;;;;;;5063700;28;20201;-63
2023/07/06 03:55:31;;;;;;;7.97;2.97;;;;;;;;;;5064163;28;20260;-63
2023/07/06 03:58:00;;;;;;;3.60;2.93;;;;;;;;;;5063519;28;20299;-62
2023/07/06 04:00:29;;;;;;;4.82;3.00;;;;;;;;;;5063176;28;20653;-63
2023/07/06 04:03:00;;;;;;;3.20;2.80;;;;;;;;;;5062442;28;20261;-63
2023/07/06 04:05:32;;;;;;;3.65;3.33;;;;;;;;;;5061033;28;20271;-64
2023/07/06 04:08:03;;;;;;;5.33;3.50;;;;;;;;;;5059301;28;20280;-63
2023/07/06 04:10:32;;;;;;;3.70;3.38;;;;;;;;;;5049603;28;20730;-63
2023/07/06 04:13:00;;;;;;;6.07;4.00;;;;;;;;;;5061106;28;20283;-63
2023/07/06 04:15:30;;;;;;;8.20;4.30;;;;;;;;;;5061375;28;20258;-63
2023/07/06 04:17:58;;;;;;;6.23;4.10;;;;;;;;;;5057867;28;20288;-63
2023/07/06 04:20:28;;;;;;;6.80;3.77;;;;;;;;;;5051885;28;20654;-63
2023/07/06 04:22:58;;;;;;;8.00;3.33;;;;;;;;;;5060351;28;20692;-63
2023/07/06 04:25:44;;;;;;;3.15;2.90;;;;;;;;;;5058654;28;20252;-64
2023/07/06 04:28:14;;;;;;;2.80;2.60;;;;;;;;;;5058302;28;20271;-63
2023/07/06 04:30:43;;;;;;;4.70;3.25;;;;;;;;;;5061612;28;21069;-63
2023/07/06 04:33:14;;;;;;;4.13;3.73;;;;;;;;;;5060756;28;20583;-64
2023/07/06 04:35:42;;;;;;;7.83;3.10;;;;;;;;;;5061414;28;20649;-63
2023/07/06 04:38:12;;;;;;;4.03;3.00;;;;;;;;;;5055554;28;20710;-63
2023/07/06 04:40:41;;;;;;;5.03;2.85;;;;;;;;;;5042350;28;20714;-66
2023/07/06 04:43:09;;;;;;;4.50;3.47;;;;;;;;;;5040338;28;20269;-65
2023/07/06 04:45:37;;;;;;;4.27;3.60;;;;;;;;;;5041088;28;20688;-63
2023/07/06 04:48:06;;;;;;;3.40;2.90;;;;;;;;;;5040627;28;21047;-63
2023/07/06 04:50:37;;;;;;;4.53;3.30;;;;;;;;;;5048697;28;20695;-62
2023/07/06 04:53:07;;;;;;;3.40;2.60;;;;;;;;;;5061113;28;20816;-62
2023/07/06 04:55:37;;;;;;;4.23;3.27;;;;;;;;;;5056486;28;20707;-63
2023/07/06 04:58:06;;;;;;;6.63;3.13;;;;;;;;;;5050242;28;20737;-63
2023/07/06 05:00:37;;;;;;;4.60;2.90;;;;;;;;;;5061473;28;21269;-63
2023/07/06 05:03:07;;;;;;;5.90;2.73;;;;;;;;;;5060464;28;20569;-63
2023/07/06 05:05:38;;;;;;;7.43;3.10;;;;;;;;;;5041075;28;20711;-63
2023/07/06 05:08:07;;;;;;;3.83;2.90;;;;;;;;;;5058230;28;20581;-64
2023/07/06 05:10:35;;;;;;;4.20;2.97;;;;;;;;;;5059670;28;20766;-63
2023/07/06 05:13:05;;;;;;;4.17;3.23;;;;;;;;;;5054278;28;21188;-64
2023/07/06 05:15:33;;;;;;;2.90;2.70;;;;;;;;;;5040373;28;20702;-62
2023/07/06 05:18:01;;;;;;;2.93;2.70;;;;;;;;;;5040535;28;20742;-63
2023/07/06 05:20:30;;;;;;;3.27;2.90;;;;;;;;;;5048123;28;20706;-63
2023/07/06 05:22:59;;;;;;;4.27;2.50;;;;;;;;;;5061603;28;20630;-63
2023/07/06 05:25:28;;;;;;;4.50;2.73;;;;;;;;;;5061540;28;20662;-63
2023/07/06 05:27:56;;;;;;;10.17;3.40;;;;;;;;;;5059224;28;20627;-63
2023/07/06 05:30:26;;;;;;;3.43;2.70;;;;;;;;;;5061500;28;20721;-63
2023/07/06 05:32:54;;;;;;;2.63;2.43;;;;;;;;;;5062080;28;20594;-63
2023/07/06 05:35:23;;;;;;;10.57;2.50;;;;;;;;;;5061836;28;20685;-63
2023/07/06 05:37:51;;;;;;;3.37;3.07;;;;;;;;;;5061474;28;20679;-63
2023/07/06 05:40:20;;;;;;;3.20;2.90;;;;;;;;;;5058958;28;20677;-63
2023/07/06 05:42:50;;;;;;;2.80;2.60;;;;;;;;;;5061861;28;20654;-63
2023/07/06 05:45:19;;;;;;;8.30;3.10;;;;;;;;;;5062159;28;20713;-63
2023/07/06 05:47:48;;;;;;;6.43;2.90;;;;;;;;;;5062272;28;20699;-62
2023/07/06 05:50:16;;;;;;;7.73;3.17;;;;;;;;;;5058354;28;20658;-65
2023/07/06 05:52:45;;;;;;;3.00;2.70;;;;;;;;;;5067590;28;20651;-66
2023/07/06 05:55:14;;;;;;;4.53;2.87;;;;;;;;;;5071410;28;20628;-65
2023/07/06 05:57:43;;;;;;;5.33;2.80;;;;;;;;;;5074195;28;20621;-66
2023/07/06 06:00:13;;;;;;;3.87;2.80;;;;;;;;;;5073803;28;20635;-66
2023/07/06 06:02:43;;;;;;;7.60;2.67;;;;;;;;;;5075213;28;21141;-67
2023/07/06 06:05:13;;;;;;;5.67;2.87;;;;;;;;;;5075302;28;20646;-67
2023/07/06 06:07:43;;;;;;;4.57;2.97;;;;;;;;;;5075260;28;20542;-67
2023/07/06 06:10:12;;;;;;;18.73;3.10;;;;;;;;;;5075568;28;20670;-67
2023/07/06 06:12:40;;;;;;;6.87;3.27;;;;;;;;;;5075518;28;20597;-67
2023/07/06 06:15:10;;;;;;;4.07;3.40;;;;;;;;;;5074503;28;20669;-67
2023/07/06 06:17:38;;;;;;;3.20;3.00;;;;;;;;;;5076280;28;20602;-66
2023/07/06 06:20:08;;;;;;;6.90;3.70;;;;;;;;;;5075258;28;21008;-66
2023/07/06 06:22:40;;;;;;;4.60;3.20;;;;;;;;;;5076267;28;20619;-66
2023/07/06 06:25:08;;;;;;;7.23;3.70;;;;;;;;;;5061927;28;21011;-64
2023/07/06 06:27:36;;;;;;;4.60;3.23;;;;;;;;;;5052340;28;20943;-64
2023/07/06 06:30:06;;;;;;;3.60;3.30;;;;;;;;;;5051581;28;20664;-65
2023/07/06 06:32:34;;;;;;;3.50;3.20;;;;;;;;;;5051305;28;21189;-65
2023/07/06 06:35:03;;;;;;;4.83;3.20;;;;;;;;;;5049533;28;20639;-64
2023/07/06 06:37:31;;;;;;;10.20;3.40;;;;;;;;;;5048610;28;20611;-65
2023/07/06 06:40:03;;;;;;;10.63;3.60;;;;;;;;;;5052717;28;21204;-63
2023/07/06 06:42:31;;;;;;;5.00;3.47;;;;;;;;;;5051894;28;20591;-63
2023/07/06 06:45:00;;;;;;;3.70;3.13;;;;;;;;;;5051546;28;20977;-64
2023/07/06 06:47:28;;;;;;;4.87;3.13;;;;;;;;;;5051861;28;20613;-63
2023/07/06 06:49:56;;;;;;;6.03;3.33;;;;;;;;;;5051207;28;20590;-63
2023/07/06 06:52:25;;;;;;;4.37;3.50;;;;;;;;;;5051830;28;21154;-64
2023/07/06 06:54:53;;;;;;;6.07;3.97;;;;;;;;;;5052793;28;20586;-64
2023/07/06 06:57:23;;;;;;;9.03;3.53;;;;;;;;;;5050386;28;20607;-63
2023/07/06 06:59:53;;;;;;;3.50;3.03;;;;;;;;;;5051276;28;20629;-65
2023/07/06 07:02:22;;;;;;;3.67;3.37;;;;;;;;;;5049781;28;20623;-65
2023/07/06 07:04:50;;;;;;;6.60;3.70;;;;;;;;;;5050264;28;20586;-66
2023/07/06 07:07:18;;;;;;;6.53;4.63;;;;;;;;;;5050753;28;20623;-65
2023/07/06 07:09:46;;;;;;;5.27;3.33;;;;;;;;;;5050269;28;20654;-65
2023/07/06 07:12:14;;;;;;;3.50;3.20;;;;;;;;;;5031017;28;20645;-65
2023/07/06 07:14:45;;;;;;;3.27;3.07;;;;;;;;;;5031579;28;20618;-62
2023/07/06 07:17:14;;;;;;;7.73;2.83;;;;;;;;;;5030974;28;20580;-67
2023/07/06 07:19:43;;;;;;;8.63;3.80;;;;;;;;;;5033225;28;20655;-62
2023/07/06 07:22:11;;;;;;;3.80;3.40;;;;;;;;;;5034625;28;20618;-62
2023/07/06 07:24:39;;;;;;;4.10;3.33;;;;;;;;;;5033688;28;20673;-62
2023/07/06 07:27:08;;;;;;;3.67;3.33;;;;;;;;;;5037193;28;20611;-66
2023/07/06 07:29:37;;;;;;;4.87;3.37;;;;;;;;;;5072885;28;20623;-68
2023/07/06 07:35:37;;;;;;;4.43;3.90;;;;;;;;;;5072221;28;20627;-69
2023/07/06 07:38:06;;;;;;;4.37;3.90;;;;;;;;;;5058280;28;20633;-68
2023/07/06 07:40:37;;;;;;;4.07;3.67;;;;;;;;;;5091221;22;20922;-84
2023/07/06 07:43:08;;;;;;;5.40;3.90;;;;;;;;;;5045743;28;21188;-84
2023/07/06 07:45:37;;;;;;;4.23;3.90;;;;;;;;;;5044318;28;20590;-85
2023/07/06 07:48:07;;;;;;;4.23;3.60;;;;;;;;;;5041602;28;20717;-85
2023/07/06 07:50:36;;;;;;;4.00;3.70;;;;;;;;;;5026968;28;20686;-84
2023/07/06 07:53:09;;;;;;;4.67;4.20;;;;;;;;;;5062466;28;20682;-83
2023/07/06 07:55:39;;;;;;;4.00;3.70;;;;;;;;;;5062060;28;20679;-83
2023/07/06 07:58:08;;;;;;;4.37;4.07;;;;;;;;;;5061665;28;20689;-85
2023/07/06 08:00:38;;;;;;;4.33;3.80;;;;;;;;;;5040802;28;20670;-83
2023/07/06 08:03:09;;;;;;;4.73;3.90;;;;;;;;;;5041351;28;20683;-87
2023/07/06 08:05:41;;;;;;;4.43;4.13;;;;;;;;;;5061529;28;20638;-87
2023/07/06 08:08:11;;;;;;;4.60;4.17;;;;;;;;;;5060073;28;20751;-87
2023/07/06 08:10:40;;;;;;;4.27;4.03;;;;;;;;;;5056970;28;20799;-87
2023/07/06 08:13:09;;;;;;;4.20;3.80;;;;;;;;;;5041047;28;20631;-88
2023/07/06 08:15:38;;;;;;;3.87;3.60;;;;;;;;;;5043058;28;21176;-87
2023/07/06 08:18:07;;;;;;;5.90;4.47;;;;;;;;;;5059344;28;20690;-87
2023/07/06 08:20:36;;;;;;;4.70;4.30;;;;;;;;;;5050111;28;20733;-86
2023/07/06 08:23:07;;;;;;;5.27;4.00;;;;;;;;;;5056523;28;20695;-88
2023/07/06 08:25:41;;;;;;;5.83;4.10;;;;;;;;;;5026576;28;20591;-87
2023/07/06 08:28:12;;;;;;;4.73;3.80;;;;;;;;;;5027668;28;20737;-88
2023/07/06 08:30:42;;;;;;;5.90;4.27;;;;;;;;;;5041807;28;20999;-87
2023/07/06 08:33:10;;;;;;;5.53;4.00;;;;;;;;;;5042150;28;20722;-87
2023/07/06 08:35:44;;;;;;;4.33;4.07;;;;;;;;;;5026697;28;21176;-87
2023/07/06 08:38:14;;;;;;;5.10;4.23;;;;;;;;;;5042636;28;20611;-87
2023/07/06 08:40:43;;;;;;;4.10;3.80;;;;;;;;;;5058250;28;21294;-87
2023/07/06 08:43:16;;;;;;;4.33;3.97;;;;;;;;;;5059167;28;20706;-87
2023/07/06 08:45:46;;;;;;;5.10;4.00;;;;;;;;;;5040412;28;20713;-86
2023/07/06 08:48:15;;;;;;;4.33;4.13;;;;;;;;;;5042947;28;20969;-88
2023/07/06 08:50:48;;;;;;;4.80;4.30;;;;;;;;;;5036005;28;20618;-86
2023/07/06 08:53:18;;;;;;;4.70;4.30;;;;;;;;;;5021892;28;20695;-86
2023/07/06 08:55:46;;;;;;;4.10;3.70;;;;;;;;;;5035721;28;20631;-87
2023/07/06 08:58:19;;;;;;;4.20;3.90;;;;;;;;;;5017804;28;21184;-87
2023/07/06 09:00:47;;;;;;;4.40;4.00;;;;;;;;;;5035297;28;20655;-85
2023/07/06 09:03:15;;;;;;;4.67;4.37;;;;;;;;;;5015191;28;20623;-87
2023/07/06 09:05:46;;;;;;;5.07;4.67;;;;;;;;;;5015380;28;21079;-87
2023/07/06 09:08:15;;;;;;;4.73;4.20;;;;;;;;;;5015874;28;20649;-88
2023/07/06 09:10:47;;;;;;;4.40;4.10;;;;;;;;;;5015261;28;20673;-87
2023/07/06 09:13:22;;;;;;;4.03;3.73;;;;;;;;;;5033324;28;20702;-88
2023/07/06 09:15:56;;;;;;;5.00;3.83;;;;;;;;;;5034072;28;20592;-84
2023/07/06 09:18:24;;;;;;;9.20;4.83;;;;;;;;;;5033935;28;20661;-87
2023/07/06 09:20:53;;;;;;;5.27;4.77;;;;;;;;;;5017368;28;20652;-87
2023/07/06 09:23:24;;;;;;;4.27;3.97;;;;;;;;;;5032703;28;20610;-87
2023/07/06 09:25:56;;;;;;;5.13;4.77;;;;;;;;;;5033134;28;20584;-87
2023/07/06 09:28:28;;;;;;;5.00;4.60;;;;;;;;;;4997988;28;20636;-87
2023/07/06 09:31:07;;;;;;;5.03;4.63;;;;;;;;;;5001513;28;20600;-86
2023/07/06 09:33:36;;;;;;;4.63;4.33;;;;;;;;;;5034646;28;20604;-88
2023/07/06 09:36:07;;;;;;;4.77;4.47;;;;;;;;;;5035382;28;20617;-86
2023/07/06 09:38:43;;;;;;;4.27;4.00;;;;;;;;;;5000991;28;20579;-85
2023/07/06 09:41:21;;;;;;;4.83;4.53;;;;;;;;;;5016656;28;20652;-85
2023/07/06 09:43:51;;;;;;;4.97;4.47;;;;;;;;;;5034339;28;20583;-86
2023/07/06 09:46:20;;;;;;;4.90;4.40;;;;;;;;;;5017219;28;20594;-86
2023/07/06 09:48:48;;;;;;;3.97;3.77;;;;;;;;;;5000892;28;20612;-87
2023/07/06 09:51:21;;;;;;;4.93;4.63;;;;;;;;;;5009563;28;20619;-86
2023/07/06 09:53:51;;;;;;;8.10;7.30;;;;;;;;;;5054071;28;21203;-87
2023/07/06 09:56:21;;;;;;;5.43;4.60;;;;;;;;;;5036480;28;21068;-87
2023/07/06 09:58:51;;;;;;;5.50;5.03;;;;;;;;;;5037150;28;21014;-85
2023/07/06 10:01:23;;;;;;;5.40;4.77;;;;;;;;;;5036854;28;20669;-86
2023/07/06 10:03:56;;;;;;;5.30;4.90;;;;;;;;;;5054668;28;20683;-87
2023/07/06 10:06:37;;;;;;;6.57;4.53;;;;;;;;;;5055488;28;20674;-87
2023/07/06 10:09:09;;;;;;;4.93;4.47;;;;;;;;;;5054608;28;20999;-87
2023/07/06 10:11:43;;;;;;;4.80;4.40;;;;;;;;;;5053550;28;20679;-88
2023/07/06 10:14:20;;;;;;;5.23;4.73;;;;;;;;;;5037716;28;20631;-87
2023/07/06 10:16:52;;;;;;;9.33;4.63;;;;;;;;;;5038364;28;20586;-89
2023/07/06 10:19:22;;;;;;;5.07;4.63;;;;;;;;;;5040300;28;20698;-89
2023/07/06 10:21:58;;;;;;;4.83;4.30;;;;;;;;;;5037011;28;21015;-87
2023/07/06 10:24:32;;;;;;;4.87;4.47;;;;;;;;;;5055686;28;21193;-87
2023/07/06 10:27:04;;;;;;;4.80;4.40;;;;;;;;;;5033569;28;20751;-87
2023/07/06 10:29:38;;;;;;;4.20;3.80;;;;;;;;;;5036399;28;20607;-87
2023/07/06 10:32:10;;;;;;;4.40;4.20;;;;;;;;;;5021222;28;20678;-86
2023/07/06 10:34:41;;;;;;;4.50;4.20;;;;;;;;;;5038910;28;20682;-86
2023/07/06 10:37:12;;;;;;;4.63;4.27;;;;;;;;;;5054399;28;20993;-85
2023/07/06 10:39:54;;;;;;;6.30;4.90;;;;;;;;;;5039997;28;20684;-84
2023/07/06 10:42:25;;;;;;;5.37;4.90;;;;;;;;;;5050550;28;20725;-84
2023/07/06 10:44:55;;;;;;;4.63;4.27;;;;;;;;;;5030046;28;20678;-85
2023/07/06 10:47:39;;;;;;;5.53;5.03;;;;;;;;;;5035789;28;20596;-85
2023/07/06 10:50:13;;;;;;;6.07;5.17;;;;;;;;;;5017482;28;20702;-84
2023/07/06 10:52:43;;;;;;;4.90;4.63;;;;;;;;;;5037316;28;20607;-84
2023/07/06 10:55:12;;;;;;;5.97;4.77;;;;;;;;;;5033429;28;20603;-85
2023/07/06 10:57:51;;;;;;;5.40;5.00;;;;;;;;;;5040421;28;20623;-85
2023/07/06 11:00:21;;;;;;;5.13;4.73;;;;;;;;;;5057570;28;20659;-85
2023/07/06 11:02:55;;;;;;;5.17;4.83;;;;;;;;;;5050441;28;20602;-85
2023/07/06 11:05:27;;;;;;;6.23;5.00;;;;;;;;;;5041976;28;20692;-85
2023/07/06 11:08:00;;;;;;;4.90;4.60;;;;;;;;;;5030788;28;20596;-85
2023/07/06 11:10:33;;;;;;;5.90;5.37;;;;;;;;;;5035811;28;20617;-84
2023/07/06 11:13:16;;;;;;;5.07;4.67;;;;;;;;;;5040308;28;20702;-84
2023/07/06 11:15:59;;;;;;;5.60;5.20;;;;;;;;;;5059779;28;20609;-84
2023/07/06 11:18:32;;;;;;;5.07;4.60;;;;;;;;;;5038694;28;20718;-85
2023/07/06 11:21:03;;;;;;;4.87;4.57;;;;;;;;;;5039548;28;20706;-84
2023/07/06 11:23:35;;;;;;;5.47;4.73;;;;;;;;;;5029591;28;20777;-85
2023/07/06 11:26:05;;;;;;;12.30;4.80;;;;;;;;;;5047427;28;20694;-86
2023/07/06 11:28:36;;;;;;;5.87;5.53;;;;;;;;;;5046360;28;20805;-88
2023/07/06 11:31:12;;;;;;;5.33;4.93;;;;;;;;;;5049192;28;20627;-86
2023/07/06 11:33:46;;;;;;;5.50;5.10;;;;;;;;;;5049180;28;20595;-88
2023/07/06 11:36:20;;;;;;;5.83;4.93;;;;;;;;;;5049209;28;20710;-86
2023/07/06 11:39:00;;;;;;;4.80;4.53;;;;;;;;;;5067550;28;20619;-86
2023/07/06 11:41:39;;;;;;;4.87;4.57;;;;;;;;;;5063540;28;21114;-85
2023/07/06 11:44:15;;;;;;;5.20;4.87;;;;;;;;;;5062856;28;20745;-85
2023/07/06 11:46:54;;;;;;;5.83;5.43;;;;;;;;;;5024658;28;21041;-85
2023/07/06 11:49:31;;;;;;;5.10;4.70;;;;;;;;;;5023688;28;20675;-85
2023/07/06 11:51:59;;;;;;;5.53;5.10;;;;;;;;;;5029433;28;21232;-85
2023/07/06 11:54:43;;;;;;;12.30;5.23;;;;;;;;;;5056242;28;20725;-85
2023/07/06 12:00:33;;;;;;;4.70;4.50;;;;;;;;;;5071810;28;20636;-64
2023/07/06 12:03:04;;;;;;;5.00;4.60;;;;;;;;;;5073422;28;20634;-65
2023/07/06 12:05:37;;;;;;;7.27;4.77;;;;;;;;;;5071496;28;20586;-65
2023/07/06 12:08:16;;;;;;;5.73;5.20;;;;;;;;;;5074585;28;21128;-65
2023/07/06 12:10:48;;;;;;;5.53;5.00;;;;;;;;;;5069363;28;21467;-65
2023/07/06 12:13:21;;;;;;;5.13;4.77;;;;;;;;;;5062229;28;20607;-64
2023/07/06 12:15:51;;;;;;;5.60;5.00;;;;;;;;;;5067064;28;20630;-66
2023/07/06 12:18:23;;;;;;;5.60;5.10;;;;;;;;;;5073575;28;20703;-65
2023/07/06 12:20:55;;;;;;;5.93;5.40;;;;;;;;;;5065428;28;20618;-65
2023/07/06 12:23:24;;;;;;;5.80;5.40;;;;;;;;;;5056122;28;21341;-65
2023/07/06 12:25:54;;;;;;;5.10;4.80;;;;;;;;;;5067331;28;20639;-64
2023/07/06 12:28:26;;;;;;;5.93;5.53;;;;;;;;;;5068448;28;20628;-65
2023/07/06 12:30:54;;;;;;;5.40;5.10;;;;;;;;;;5064457;28;20626;-63
2023/07/06 12:33:24;;;;;;;5.60;5.20;;;;;;;;;;5073115;28;20621;-65
2023/07/06 12:35:54;;;;;;;5.70;5.03;;;;;;;;;;5072339;28;20587;-64
2023/07/06 12:38:23;;;;;;;5.60;5.20;;;;;;;;;;5070112;28;20618;-66
2023/07/06 12:40:52;;;;;;;6.07;5.57;;;;;;;;;;5072558;28;20616;-66
2023/07/06 12:43:32;;;;;;;6.17;5.77;;;;;;;;;;5071198;28;20657;-64
2023/07/06 12:46:01;;;;;;;6.80;5.80;;;;;;;;;;5065572;28;20618;-65
2023/07/06 12:48:32;;;;;;;5.70;5.20;;;;;;;;;;5070159;28;20627;-64
2023/07/06 12:51:09;;;;;;;6.70;6.30;;;;;;;;;;5065242;28;20610;-66
2023/07/06 12:53:37;;;;;;;6.57;6.00;;;;;;;;;;5062961;28;20644;-64
2023/07/06 12:56:08;;;;;;;5.50;5.20;;;;;;;;;;5069698;28;20987;-65
2023/07/06 12:58:37;;;;;;;5.60;5.30;;;;;;;;;;5071540;28;20649;-65
2023/07/06 13:01:06;;;;;;;5.60;5.20;;;;;;;;;;5071440;28;20614;-65
2023/07/06 13:03:47;;;;;;;5.57;5.20;;;;;;;;;;5060011;28;20655;-64
2023/07/06 13:06:16;;;;;;;5.60;5.10;;;;;;;;;;5069459;28;20666;-65
2023/07/06 13:08:45;;;;;;;5.53;5.23;;;;;;;;;;5072145;28;20644;-66
2023/07/06 13:11:15;;;;;;;5.77;5.47;;;;;;;;;;5068710;28;20684;-65
2023/07/06 13:13:45;;;;;;;5.03;4.73;;;;;;;;;;5071689;28;20948;-65
2023/07/06 13:16:16;;;;;;;5.90;5.47;;;;;;;;;;5070816;28;20644;-62
2023/07/06 13:18:46;;;;;;;5.60;5.20;;;;;;;;;;5067798;28;20603;-63
2023/07/06 13:21:19;;;;;;;5.20;4.90;;;;;;;;;;5069391;28;20667;-63
2023/07/06 13:23:58;;;;;;;5.60;5.30;;;;;;;;;;5071089;28;20622;-62
2023/07/06 13:26:27;;;;;;;5.43;5.13;;;;;;;;;;5070150;28;20594;-63
2023/07/06 13:28:55;;;;;;;6.03;5.53;;;;;;;;;;5071597;28;20710;-62
2023/07/06 13:31:25;;;;;;;6.80;5.30;;;;;;;;;;5070457;28;20611;-63
2023/07/06 13:33:53;;;;;;;5.60;5.30;;;;;;;;;;5071020;28;20637;-63
2023/07/06 13:36:25;;;;;;;5.97;5.53;;;;;;;;;;5069888;28;20625;-63
2023/07/06 13:38:54;;;;;;;6.33;5.83;;;;;;;;;;5069355;28;20616;-64
2023/07/06 13:41:24;;;;;;;5.60;5.30;;;;;;;;;;5071767;28;20671;-63
2023/07/06 13:43:52;;;;;;;5.60;5.20;;;;;;;;;;5071049;28;20650;-64
2023/07/06 13:46:20;;;;;;;6.00;5.60;;;;;;;;;;5070144;28;20622;-64
2023/07/06 13:48:49;;;;;;;8.43;5.60;;;;;;;;;;5070276;28;21241;-64
2023/07/06 13:51:17;;;;;;;5.90;5.50;;;;;;;;;;5071283;28;21259;-64
2023/07/06 13:53:49;;;;;;;5.60;5.27;;;;;;;;;;5068107;28;20640;-63
2023/07/06 13:56:18;;;;;;;6.93;5.23;;;;;;;;;;5066071;28;20622;-63
2023/07/06 13:58:46;;;;;;;6.23;5.77;;;;;;;;;;5068626;28;20695;-64
2023/07/06 14:01:16;;;;;;;5.80;5.40;;;;;;;;;;5070509;28;20630;-65
2023/07/06 14:03:46;;;;;;;6.90;4.77;;;;;;;;;;5067295;28;20666;-65
2023/07/06 14:06:14;;;;;;;5.90;5.50;;;;;;;;;;5070929;28;21041;-63
2023/07/06 14:08:42;;;;;;;5.57;5.27;;;;;;;;;;5053111;28;20610;-64
2023/07/06 14:11:12;;;;;;;5.60;5.20;;;;;;;;;;5069371;28;20676;-64
2023/07/06 14:13:40;;;;;;;5.77;5.37;;;;;;;;;;5072071;28;20606;-64
2023/07/06 14:16:09;;;;;;;5.80;5.33;;;;;;;;;;5069926;28;20630;-64
2023/07/06 14:18:37;;;;;;;9.80;6.40;;;;;;;;;;5071222;28;21200;-65
2023/07/06 14:21:06;;;;;;;6.43;5.93;;;;;;;;;;5071308;28;20610;-64
2023/07/06 14:23:35;;;;;;;5.63;5.33;;;;;;;;;;5071067;28;20664;-64
2023/07/06 14:26:03;;;;;;;6.00;5.60;;;;;;;;;;5070185;28;20632;-64
2023/07/06 14:28:33;;;;;;;5.00;4.70;;;;;;;;;;5071897;28;20628;-65
2023/07/06 14:31:13;;;;;;;5.17;4.87;;;;;;;;;;5072304;28;20602;-64
2023/07/06 14:33:41;;;;;;;6.00;5.70;;;;;;;;;;5070617;28;20608;-64
2023/07/06 14:36:09;;;;;;;5.33;5.03;;;;;;;;;;5076172;28;21175;-67
2023/07/06 14:38:37;;;;;;;5.87;5.57;;;;;;;;;;5074371;28;20630;-66
2023/07/06 14:41:07;;;;;;;5.60;5.30;;;;;;;;;;5072706;28;20626;-66
2023/07/06 14:43:36;;;;;;;5.83;5.43;;;;;;;;;;5073738;28;20733;-64
2023/07/06 14:46:05;;;;;;;6.37;5.97;;;;;;;;;;5073116;28;20668;-65
2023/07/06 14:48:33;;;;;;;5.93;5.63;;;;;;;;;;5073917;28;20619;-65
2023/07/06 14:51:05;;;;;;;5.63;5.33;;;;;;;;;;5060064;28;21024;-65
2023/07/06 14:53:35;;;;;;;5.43;5.20;;;;;;;;;;5072907;28;20639;-64
2023/07/06 14:56:04;;;;;;;5.87;5.47;;;;;;;;;;5055987;28;20616;-64
2023/07/06 14:58:32;;;;;;;5.60;5.30;;;;;;;;;;5073992;28;20702;-64
2023/07/06 15:01:02;;;;;;;5.53;5.20;;;;;;;;;;5072564;28;20614;-64
2023/07/06 15:03:30;;;;;;;6.60;6.10;;;;;;;;;;5073243;28;20658;-64
2023/07/06 15:06:02;;;;;;;6.13;5.73;;;;;;;;;;5073244;28;20616;-65
2023/07/06 15:08:30;;;;;;;6.27;5.87;;;;;;;;;;5074209;28;20593;-65
2023/07/06 15:10:58;;;;;;;5.67;5.23;;;;;;;;;;5070256;28;21260;-66